createdAt,value
2023-01-29T00:02:20.700Z,91.77
2023-01-29T00:04:48.722Z,91.28
2023-01-29T00:07:16.941Z,90.22
2023-01-29T00:09:44.910Z,90.32
2023-01-29T00:12:12.834Z,90.41
2023-01-29T00:14:40.728Z,89.94
2023-01-29T00:17:08.830Z,89.33
2023-01-29T00:19:36.999Z,88.77
2023-01-29T00:22:04.976Z,88.67
2023-01-29T00:24:32.926Z,89.00
2023-01-29T00:27:00.896Z,88.04
2023-01-29T00:29:28.931Z,88.27
2023-01-29T00:31:59.913Z,88.71
2023-01-29T00:34:27.820Z,89.50
2023-01-29T00:37:06.043Z,89.11
2023-01-29T00:39:47.733Z,88.67
2023-01-29T00:42:34.555Z,88.65
2023-01-29T00:45:02.424Z,88.79
2023-01-29T00:47:36.295Z,88.34
2023-01-29T00:50:05.982Z,89.01
2023-01-29T00:52:33.951Z,89.14
2023-01-29T00:55:01.844Z,89.21
2023-01-29T00:57:30.716Z,89.72
2023-01-29T00:59:58.663Z,89.73
2023-01-29T01:02:45.078Z,89.86
2023-01-29T01:05:18.942Z,90.00
2023-01-29T01:07:50.909Z,90.10
2023-01-29T01:10:24.489Z,89.81
2023-01-29T01:13:03.536Z,89.88
2023-01-29T01:15:33.432Z,89.62
2023-01-29T01:18:01.819Z,89.46
2023-01-29T01:20:31.139Z,89.58
2023-01-29T01:22:58.939Z,89.02
2023-01-29T01:25:27.696Z,89.53
2023-01-29T01:30:27.197Z,89.30
2023-01-29T01:32:55.330Z,88.62
2023-01-29T01:35:23.169Z,88.97
2023-01-29T01:37:51.031Z,89.02
2023-01-29T01:40:21.773Z,88.93
2023-01-29T01:42:50.733Z,87.11
2023-01-29T01:45:49.653Z,86.91
2023-01-29T01:48:21.785Z,85.99
2023-01-29T01:50:59.942Z,86.92
2023-01-29T01:53:39.891Z,86.94
2023-01-29T01:56:10.329Z,86.12
2023-01-29T01:58:51.858Z,86.49
2023-01-29T02:01:20.117Z,86.15
2023-01-29T02:04:13.646Z,85.96
2023-01-29T02:07:00.057Z,86.07
2023-01-29T02:09:50.401Z,85.47
2023-01-29T02:12:18.209Z,85.24
2023-01-29T02:14:46.490Z,85.83
2023-01-29T02:17:19.272Z,85.60
2023-01-29T02:19:59.156Z,84.37
2023-01-29T02:23:04.366Z,84.09
2023-01-29T02:26:19.517Z,84.18
2023-01-29T02:28:57.869Z,84.67
2023-01-29T02:31:41.527Z,84.62
2023-01-29T02:34:22.039Z,83.81
2023-01-29T02:36:54.774Z,83.70
2023-01-29T02:39:35.319Z,84.12
2023-01-29T02:42:25.857Z,83.34
2023-01-29T02:45:10.889Z,84.09
2023-01-29T02:47:59.839Z,83.75
2023-01-29T02:50:40.077Z,84.15
2023-01-29T02:53:09.835Z,83.91
2023-01-29T02:55:41.346Z,84.18
2023-01-29T02:58:16.677Z,83.40
2023-01-29T03:00:46.919Z,83.22
2023-01-29T03:03:36.131Z,82.51
2023-01-29T03:06:39.049Z,82.71
2023-01-29T03:09:29.686Z,83.54
2023-01-29T03:12:00.062Z,83.33
2023-01-29T03:14:57.048Z,83.47
2023-01-29T03:17:33.783Z,83.04
2023-01-29T03:20:01.717Z,82.40
2023-01-29T03:22:29.612Z,81.82
2023-01-29T03:25:17.370Z,81.56
2023-01-29T03:28:09.715Z,81.61
2023-01-29T03:31:01.587Z,81.18
2023-01-29T03:33:29.776Z,82.41
2023-01-29T03:36:03.519Z,81.73
2023-01-29T03:38:33.375Z,81.23
2023-01-29T03:41:03.283Z,80.81
2023-01-29T03:43:56.741Z,80.52
2023-01-29T03:46:46.627Z,79.73
2023-01-29T03:49:17.465Z,79.85
2023-01-29T03:51:57.445Z,80.51
2023-01-29T03:54:31.165Z,81.14
2023-01-29T03:57:03.895Z,79.66
2023-01-29T03:59:37.706Z,78.58
2023-01-29T04:02:08.018Z,78.10
2023-01-29T04:04:37.673Z,78.56
2023-01-29T04:07:11.066Z,79.10
2023-01-29T04:09:48.334Z,78.02
2023-01-29T04:12:17.137Z,78.09
2023-01-29T04:14:47.108Z,79.47
2023-01-29T04:17:20.155Z,79.20
2023-01-29T04:19:49.365Z,77.96
2023-01-29T04:22:26.196Z,77.92
2023-01-29T04:24:58.724Z,78.12
2023-01-29T04:27:48.232Z,78.43
2023-01-29T04:30:34.696Z,77.78
2023-01-29T04:33:30.737Z,77.83
2023-01-29T04:36:07.303Z,77.73
2023-01-29T04:38:43.992Z,77.82
2023-01-29T04:41:46.455Z,77.01
2023-01-29T04:44:43.783Z,78.99
2023-01-29T04:47:26.498Z,78.10
2023-01-29T04:50:25.104Z,78.31
2023-01-29T04:53:23.611Z,77.95
2023-01-29T04:55:52.458Z,78.31
2023-01-29T04:58:41.229Z,78.56
2023-01-29T05:01:12.193Z,78.73
2023-01-29T05:03:40.158Z,80.01
2023-01-29T05:06:08.281Z,78.91
2023-01-29T05:08:36.153Z,79.42
2023-01-29T05:11:03.945Z,79.71
2023-01-29T05:13:32.834Z,79.39
2023-01-29T05:16:09.913Z,79.61
2023-01-29T05:18:37.741Z,79.68
2023-01-29T05:21:07.359Z,79.91
2023-01-29T05:23:35.196Z,79.85
2023-01-29T05:26:03.112Z,79.65
2023-01-29T05:28:31.092Z,79.32
2023-01-29T05:30:59.152Z,79.64
2023-01-29T05:33:31.167Z,79.45
2023-01-29T05:36:00.824Z,79.31
2023-01-29T05:38:28.735Z,79.76
2023-01-29T05:40:57.342Z,80.06
2023-01-29T05:43:25.838Z,79.89
2023-01-29T05:45:55.273Z,79.41
2023-01-29T05:48:23.351Z,79.06
2023-01-29T05:50:51.174Z,78.97
2023-01-29T05:53:19.044Z,79.21
2023-01-29T05:55:47.811Z,79.77
2023-01-29T05:58:15.638Z,79.51
2023-01-29T06:00:43.438Z,79.23
2023-01-29T06:03:11.426Z,78.82
2023-01-29T06:05:40.112Z,79.05
2023-01-29T06:08:08.386Z,79.16
2023-01-29T06:10:36.228Z,79.33
2023-01-29T06:13:04.101Z,78.88
2023-01-29T06:15:31.957Z,78.24
2023-01-29T06:17:59.850Z,77.47
2023-01-29T06:20:27.791Z,77.87
2023-01-29T06:22:55.655Z,77.62
2023-01-29T06:25:23.404Z,77.79
2023-01-29T06:27:54.260Z,77.87
2023-01-29T06:30:22.143Z,78.32
2023-01-29T06:32:50.089Z,78.33
2023-01-29T06:35:17.944Z,77.36
2023-01-29T06:37:45.739Z,78.19
2023-01-29T06:40:14.397Z,78.36
2023-01-29T06:42:43.028Z,78.34
2023-01-29T06:45:12.286Z,77.79
2023-01-29T06:47:40.028Z,78.57
2023-01-29T06:50:08.011Z,77.61
2023-01-29T06:52:35.801Z,77.63
2023-01-29T06:55:03.664Z,77.71
2023-01-29T06:57:31.546Z,78.30
2023-01-29T06:59:59.596Z,78.10
2023-01-29T07:02:27.665Z,77.74
2023-01-29T07:04:55.511Z,78.24
2023-01-29T07:07:23.347Z,77.83
2023-01-29T07:09:51.351Z,78.28
2023-01-29T07:12:19.360Z,78.21
2023-01-29T07:14:47.453Z,78.66
2023-01-29T07:17:15.273Z,77.64
2023-01-29T07:19:43.225Z,78.25
2023-01-29T07:22:11.048Z,77.70
2023-01-29T07:24:38.890Z,77.82
2023-01-29T07:27:06.767Z,77.37
2023-01-29T07:29:34.702Z,77.73
2023-01-29T07:32:02.542Z,78.54
2023-01-29T07:34:31.185Z,78.89
2023-01-29T07:36:58.983Z,79.05
2023-01-29T07:39:26.810Z,78.97
2023-01-29T07:41:54.679Z,78.53
2023-01-29T07:44:22.531Z,77.30
2023-01-29T07:46:50.365Z,76.71
2023-01-29T07:49:18.167Z,76.27
2023-01-29T07:51:46.026Z,76.95
2023-01-29T07:54:13.892Z,77.56
2023-01-29T07:56:41.724Z,76.50
2023-01-29T07:59:09.666Z,76.12
2023-01-29T08:01:37.637Z,75.77
2023-01-29T08:04:05.588Z,77.48
2023-01-29T08:06:33.399Z,76.42
2023-01-29T08:09:01.329Z,75.74
2023-01-29T08:11:29.362Z,76.45
2023-01-29T08:13:58.482Z,76.68
2023-01-29T08:16:26.450Z,76.82
2023-01-29T08:18:54.674Z,75.79
2023-01-29T08:21:22.731Z,75.52
2023-01-29T08:23:50.717Z,74.73
2023-01-29T08:26:18.905Z,75.56
2023-01-29T08:28:46.731Z,76.46
2023-01-29T08:31:16.352Z,75.85
2023-01-29T08:33:44.255Z,75.42
2023-01-29T08:36:12.109Z,75.28
2023-01-29T08:38:39.972Z,74.15
2023-01-29T08:41:07.996Z,75.76
2023-01-29T08:43:40.649Z,74.42
2023-01-29T08:46:08.804Z,75.19
2023-01-29T08:48:36.782Z,74.63
2023-01-29T08:51:05.715Z,74.79
2023-01-29T08:53:33.589Z,73.99
2023-01-29T08:56:01.423Z,74.72
2023-01-29T08:58:29.229Z,75.35
2023-01-29T09:00:57.096Z,75.57
2023-01-29T09:03:24.937Z,74.31
2023-01-29T09:05:52.964Z,74.61
2023-01-29T09:08:21.209Z,74.05
2023-01-29T09:10:49.254Z,74.37
2023-01-29T09:13:17.176Z,75.73
2023-01-29T09:15:45.088Z,74.90
2023-01-29T09:18:12.964Z,73.92
2023-01-29T09:20:40.935Z,74.08
2023-01-29T09:23:09.789Z,74.15
2023-01-29T09:25:37.986Z,73.91
2023-01-29T09:28:07.371Z,74.41
2023-01-29T09:30:38.714Z,74.18
2023-01-29T09:33:07.256Z,73.24
2023-01-29T09:35:35.554Z,73.41
2023-01-29T09:38:03.447Z,73.59
2023-01-29T09:40:39.856Z,73.47
2023-01-29T09:43:18.179Z,73.24
2023-01-29T09:46:02.482Z,73.75
2023-01-29T09:48:31.949Z,74.01
2023-01-29T09:51:01.032Z,74.64
2023-01-29T09:53:54.878Z,74.15
2023-01-29T09:56:24.791Z,73.33
2023-01-29T09:59:00.480Z,74.02
2023-01-29T10:01:40.526Z,90.34
2023-01-29T10:04:32.236Z,100.00
2023-01-29T10:07:05.885Z,91.80
2023-01-29T10:10:10.624Z,76.43
2023-01-29T10:12:41.824Z,73.62
2023-01-29T10:15:21.745Z,73.39
2023-01-29T10:17:58.527Z,72.38
2023-01-29T10:20:39.143Z,73.06
2023-01-29T10:23:26.201Z,73.80
2023-01-29T10:25:54.558Z,73.73
2023-01-29T10:28:44.571Z,74.75
2023-01-29T10:31:16.726Z,74.00
2023-01-29T10:34:01.448Z,74.97
2023-01-29T10:36:38.052Z,75.14
2023-01-29T10:39:05.910Z,75.06
2023-01-29T10:42:05.084Z,75.50
2023-01-29T10:44:35.729Z,75.96
2023-01-29T10:47:06.170Z,77.03
2023-01-29T10:50:11.561Z,77.12
2023-01-29T10:52:59.354Z,75.68
2023-01-29T10:56:14.006Z,75.31
2023-01-29T10:59:03.036Z,76.23
2023-01-29T11:01:31.038Z,76.36
2023-01-29T11:04:03.289Z,77.23
2023-01-29T11:06:32.965Z,77.31
2023-01-29T11:09:09.344Z,75.58
2023-01-29T11:11:50.518Z,75.30
2023-01-29T11:14:39.703Z,75.22
2023-01-29T11:17:07.624Z,74.84
2023-01-29T11:19:44.538Z,74.80
2023-01-29T11:22:24.718Z,75.23
2023-01-29T11:25:20.743Z,75.41
2023-01-29T11:27:50.947Z,75.17
2023-01-29T11:30:23.428Z,75.38
2023-01-29T11:32:52.920Z,76.31
2023-01-29T11:35:25.887Z,76.76
2023-01-29T11:37:54.097Z,76.16
2023-01-29T11:40:38.450Z,76.02
2023-01-29T11:43:21.650Z,75.85
2023-01-29T11:45:50.483Z,75.83
2023-01-29T11:48:20.274Z,76.21
2023-01-29T11:50:58.823Z,77.04
2023-01-29T11:53:40.144Z,75.61
2023-01-29T11:56:35.607Z,76.42
2023-01-29T11:59:05.820Z,76.76
2023-01-29T12:01:40.599Z,75.57
2023-01-29T12:04:26.722Z,74.89
2023-01-29T12:06:54.851Z,74.80
2023-01-29T12:09:28.792Z,73.31
2023-01-29T12:11:57.152Z,73.69
2023-01-29T12:14:35.569Z,73.58
2023-01-29T12:17:09.965Z,74.75
2023-01-29T12:19:50.514Z,75.28
2023-01-29T12:22:47.403Z,73.57
2023-01-29T12:25:31.494Z,73.77
2023-01-29T12:28:07.232Z,74.58
2023-01-29T12:30:52.181Z,73.44
2023-01-29T12:33:42.987Z,73.15
2023-01-29T12:36:31.660Z,73.41
2023-01-29T12:39:00.559Z,73.11
2023-01-29T12:41:38.039Z,73.70
2023-01-29T12:44:20.091Z,72.03
2023-01-29T12:46:51.740Z,71.39
2023-01-29T12:49:36.822Z,72.71
2023-01-29T12:52:14.877Z,73.21
2023-01-29T12:54:59.238Z,73.25
2023-01-29T12:57:57.711Z,73.32
2023-01-29T13:00:28.323Z,71.41
2023-01-29T13:03:09.868Z,73.88
2023-01-29T13:05:53.408Z,72.63
2023-01-29T13:08:25.262Z,73.89
2023-01-29T13:10:54.294Z,73.41
2023-01-29T13:13:40.703Z,74.14
2023-01-29T13:16:11.602Z,73.76
2023-01-29T13:18:46.502Z,71.73
2023-01-29T13:21:22.836Z,71.45
2023-01-29T13:23:56.098Z,72.98
2023-01-29T13:26:24.344Z,73.56
2023-01-29T13:28:52.874Z,73.42
2023-01-29T13:31:34.887Z,74.63
2023-01-29T13:34:14.735Z,74.02
2023-01-29T13:37:03.897Z,74.03
2023-01-29T13:39:38.575Z,73.97
2023-01-29T13:42:23.054Z,73.46
2023-01-29T13:44:52.503Z,74.23
2023-01-29T13:47:27.750Z,73.47
2023-01-29T13:50:18.716Z,75.20
2023-01-29T13:52:52.573Z,74.18
2023-01-29T13:55:21.200Z,74.25
2023-01-29T13:57:53.969Z,74.71
2023-01-29T14:00:23.472Z,74.33
2023-01-29T14:02:57.524Z,74.42
2023-01-29T14:05:31.876Z,74.36
2023-01-29T14:08:03.103Z,73.35
2023-01-29T14:10:32.387Z,74.43
2023-01-29T14:13:22.822Z,73.48
2023-01-29T14:15:59.981Z,71.48
2023-01-29T14:18:29.751Z,73.87
2023-01-29T14:20:58.975Z,72.43
2023-01-29T14:23:45.231Z,72.58
2023-01-29T14:26:25.459Z,72.80
2023-01-29T14:29:06.903Z,73.78
2023-01-29T14:32:00.972Z,72.72
2023-01-29T14:34:34.195Z,73.46
2023-01-29T14:37:16.429Z,72.17
2023-01-29T14:39:56.321Z,73.08
2023-01-29T14:42:35.814Z,73.60
2023-01-29T14:45:29.960Z,72.31
2023-01-29T14:48:10.831Z,72.62
2023-01-29T14:50:39.182Z,73.19
2023-01-29T14:53:18.191Z,74.27
2023-01-29T14:55:46.832Z,73.20
2023-01-29T14:58:39.182Z,74.13
2023-01-29T15:01:12.439Z,72.81
2023-01-29T15:03:46.165Z,72.87
2023-01-29T15:06:32.132Z,71.90
2023-01-29T15:09:15.412Z,72.40
2023-01-29T15:12:04.801Z,73.13
2023-01-29T15:14:39.561Z,74.42
2023-01-29T15:17:18.224Z,75.42
2023-01-29T15:19:49.414Z,74.17
2023-01-29T15:22:22.019Z,73.91
2023-01-29T15:25:04.240Z,74.10
2023-01-29T15:27:32.330Z,73.49
2023-01-29T15:30:01.661Z,73.72
2023-01-29T15:32:36.926Z,73.83
2023-01-29T15:35:29.254Z,73.83
2023-01-29T15:38:06.522Z,73.36
2023-01-29T15:40:35.028Z,73.09
2023-01-29T15:43:03.030Z,73.38
2023-01-29T15:45:34.922Z,73.02
2023-01-29T15:48:08.818Z,73.31
2023-01-29T15:50:38.518Z,73.22
2023-01-29T15:53:08.789Z,73.49
2023-01-29T15:55:36.675Z,73.50
2023-01-29T15:58:04.725Z,73.92
2023-01-29T16:00:32.744Z,74.02
2023-01-29T16:03:02.753Z,75.40
2023-01-29T16:05:31.564Z,73.67
2023-01-29T16:07:59.547Z,72.33
2023-01-29T16:10:33.189Z,72.56
2023-01-29T16:13:01.270Z,72.59
2023-01-29T16:15:35.095Z,75.05
2023-01-29T16:18:05.163Z,74.41
2023-01-29T16:20:53.602Z,74.93
2023-01-29T16:23:38.072Z,75.40
2023-01-29T16:26:09.954Z,75.14
2023-01-29T16:28:42.809Z,75.66
2023-01-29T16:31:11.275Z,75.90
2023-01-29T16:33:40.248Z,75.42
2023-01-29T16:36:22.216Z,75.23
2023-01-29T16:39:04.197Z,74.86
2023-01-29T16:41:37.502Z,75.31
2023-01-29T16:44:29.136Z,76.16
2023-01-29T16:46:57.065Z,75.11
2023-01-29T16:49:28.362Z,75.37
2023-01-29T16:51:57.799Z,76.51
2023-01-29T16:54:26.248Z,76.37
2023-01-29T16:56:56.187Z,76.38
2023-01-29T16:59:33.203Z,76.84
2023-01-29T17:02:01.391Z,77.53
2023-01-29T17:04:29.436Z,77.49
2023-01-29T17:06:59.373Z,77.56
2023-01-29T17:09:32.586Z,77.13
2023-01-29T17:12:05.974Z,77.08
2023-01-29T17:14:34.538Z,77.54
2023-01-29T17:17:18.676Z,77.36
2023-01-29T17:19:46.704Z,77.69
2023-01-29T17:22:17.484Z,77.26
2023-01-29T17:24:45.429Z,76.92
2023-01-29T17:27:21.272Z,76.21
2023-01-29T17:30:16.009Z,75.28
2023-01-29T17:32:45.184Z,75.30
2023-01-29T17:35:16.332Z,74.97
2023-01-29T17:37:45.421Z,74.61
2023-01-29T17:40:36.747Z,75.36
2023-01-29T17:43:04.622Z,75.02
2023-01-29T17:45:32.522Z,74.64
2023-01-29T17:48:00.316Z,75.50
2023-01-29T17:50:29.488Z,76.00
2023-01-29T17:52:57.392Z,76.11
2023-01-29T17:55:25.180Z,75.87
2023-01-29T17:57:53.178Z,76.12
2023-01-29T18:00:23.212Z,76.19
2023-01-29T18:02:51.238Z,76.02
2023-01-29T18:05:19.651Z,75.95
2023-01-29T18:07:48.055Z,75.58
2023-01-29T18:10:18.336Z,76.39
2023-01-29T18:12:46.341Z,76.35
2023-01-29T18:15:14.249Z,77.14
2023-01-29T18:17:42.487Z,77.39
2023-01-29T18:20:21.896Z,75.62
2023-01-29T18:22:49.848Z,75.70
2023-01-29T18:25:18.022Z,76.28
2023-01-29T18:27:46.206Z,76.82
2023-01-29T18:30:14.376Z,76.80
2023-01-29T18:32:42.164Z,77.18
2023-01-29T18:35:10.605Z,77.05
2023-01-29T18:37:38.434Z,77.37
2023-01-29T18:40:07.102Z,77.28
2023-01-29T18:42:37.011Z,76.86
2023-01-29T18:45:05.218Z,77.62
2023-01-29T18:47:33.209Z,78.43
2023-01-29T18:50:00.956Z,77.92
2023-01-29T18:52:28.816Z,78.67
2023-01-29T18:54:56.709Z,79.26
2023-01-29T18:58:27.287Z,78.66
2023-01-29T19:00:13.251Z,78.30
2023-01-29T19:02:41.071Z,78.32
2023-01-29T19:05:09.105Z,79.03
2023-01-29T19:07:36.906Z,78.74
2023-01-29T19:10:07.967Z,78.65
2023-01-29T19:12:36.193Z,79.20
2023-01-29T19:15:04.178Z,79.14
2023-01-29T19:17:32.138Z,79.18
2023-01-29T19:20:03.359Z,79.32
2023-01-29T19:22:31.659Z,79.75
2023-01-29T19:24:59.707Z,79.53
2023-01-29T19:27:31.475Z,80.19
2023-01-29T19:30:00.633Z,79.94
2023-01-29T19:32:32.947Z,80.35
2023-01-29T19:35:07.330Z,80.29
2023-01-29T19:37:35.196Z,80.45
2023-01-29T19:40:03.261Z,80.88
2023-01-29T19:42:31.189Z,81.17
2023-01-29T19:44:59.142Z,81.15
2023-01-29T19:47:27.090Z,81.49
2023-01-29T19:49:55.097Z,81.89
2023-01-29T19:52:51.104Z,81.54
2023-01-29T19:55:20.346Z,81.57
2023-01-29T19:57:48.385Z,81.47
2023-01-29T20:00:18.586Z,81.59
2023-01-29T20:02:46.950Z,82.09
2023-01-29T20:05:15.547Z,82.32
2023-01-29T20:07:43.763Z,82.57
2023-01-29T20:10:18.169Z,83.05
2023-01-29T20:12:47.033Z,83.00
2023-01-29T20:15:15.340Z,83.57
2023-01-29T20:17:43.272Z,83.66
2023-01-29T20:20:11.856Z,83.62
2023-01-29T20:22:39.615Z,83.93
2023-01-29T20:25:07.880Z,84.36
2023-01-29T20:27:35.773Z,84.28
2023-01-29T20:30:03.696Z,84.49
2023-01-29T20:32:32.897Z,84.67
2023-01-29T20:35:00.769Z,84.70
2023-01-29T20:37:28.641Z,84.58
2023-01-29T20:39:56.504Z,84.81
2023-01-29T20:42:24.368Z,84.72
2023-01-29T20:44:52.388Z,84.78
2023-01-29T20:47:20.374Z,84.54
2023-01-29T20:49:48.257Z,84.55
2023-01-29T20:52:16.181Z,84.68
2023-01-29T20:54:44.068Z,84.86
2023-01-29T20:57:11.949Z,85.30
2023-01-29T20:59:40.132Z,85.26
2023-01-29T21:02:08.154Z,85.42
2023-01-29T21:04:36.240Z,85.12
2023-01-29T21:07:04.243Z,84.94
2023-01-29T21:09:32.199Z,85.15
2023-01-29T21:12:00.150Z,85.33
2023-01-29T21:14:28.017Z,85.69
2023-01-29T21:16:56.138Z,86.07
2023-01-29T21:19:23.947Z,85.88
2023-01-29T21:21:51.819Z,85.81
2023-01-29T21:24:20.111Z,85.83
2023-01-29T21:26:48.169Z,86.47
2023-01-29T21:29:16.072Z,86.52
2023-01-29T21:31:44.120Z,86.63
2023-01-29T21:34:12.065Z,87.11
2023-01-29T21:36:44.710Z,87.16
2023-01-29T21:39:18.355Z,87.06
2023-01-29T21:42:08.432Z,87.74
2023-01-29T21:44:36.629Z,87.65
2023-01-29T21:47:13.416Z,88.13
2023-01-29T21:49:42.502Z,87.99
2023-01-29T21:52:10.908Z,89.43
2023-01-29T21:54:41.095Z,87.99
2023-01-29T21:57:13.175Z,87.99
2023-01-29T21:59:41.384Z,87.45
2023-01-29T22:02:13.563Z,87.37
2023-01-29T22:04:42.171Z,87.57
2023-01-29T22:07:11.651Z,87.63
2023-01-29T22:09:39.668Z,88.21
2023-01-29T22:12:08.063Z,88.09
2023-01-29T22:14:36.052Z,88.51
2023-01-29T22:17:04.077Z,88.44
2023-01-29T22:19:32.051Z,88.57
2023-01-29T22:21:59.891Z,88.04
2023-01-29T22:24:27.751Z,88.60
2023-01-29T22:26:55.578Z,88.01
2023-01-29T22:29:23.407Z,88.63
2023-01-29T22:31:51.272Z,88.38
2023-01-29T22:34:19.033Z,88.47
2023-01-29T22:36:46.776Z,87.99
2023-01-29T22:39:14.620Z,88.36
2023-01-29T22:41:42.405Z,88.43
2023-01-29T22:44:10.601Z,89.05
2023-01-29T22:46:38.447Z,87.98
2023-01-29T22:49:06.289Z,87.77
2023-01-29T22:51:34.083Z,88.07
2023-01-29T22:54:02.729Z,87.89
2023-01-29T22:56:33.289Z,87.87
2023-01-29T22:59:02.699Z,87.32
2023-01-29T23:01:32.153Z,87.19
2023-01-29T23:03:59.943Z,86.81
2023-01-29T23:06:27.761Z,87.47
2023-01-29T23:08:55.670Z,87.35
2023-01-29T23:11:24.741Z,87.63
2023-01-29T23:13:53.750Z,87.47
2023-01-29T23:16:27.749Z,88.11
2023-01-29T23:18:56.416Z,88.49
2023-01-29T23:21:26.067Z,87.83
2023-01-29T23:23:55.523Z,87.62
2023-01-29T23:26:42.043Z,88.83
2023-01-29T23:29:10.093Z,88.19
2023-01-29T23:31:38.026Z,88.92
2023-01-29T23:34:05.816Z,88.06
2023-01-29T23:36:33.642Z,88.11
2023-01-29T23:39:01.568Z,87.80
2023-01-29T23:41:29.378Z,88.57
2023-01-29T23:43:57.218Z,87.65
2023-01-29T23:46:25.036Z,87.81
2023-01-29T23:48:52.865Z,87.07
2023-01-29T23:51:20.752Z,86.81
2023-01-29T23:53:48.535Z,87.04
2023-01-29T23:56:16.462Z,86.48
2023-01-29T23:58:44.414Z,86.54
